CFG4MG LEPA-EDDL
Flight info
| Callsign | CFG4MG |
|---|---|
| Flight time | N/A |
| Altitude | FL360 |
| Route | MERO9B MEROS N853 LUMAS MAXIR LUSOL BODRU OKTET IRMAR KINES VANAS MOBLO UBIMA GILIR PENDU IXILU EPL ROUSY DIK N853 ARCKY T853 NVO T857 BIKMU BIKM1A |
| Aircraft | A321/M-SDE3FGHIRWY/LB1 |
Departure
| Time | N/A |
|---|---|
| Airport | Palma de Mallorca Airport (LEPA) |
Arrival
| Time | 2026-05-01 13:24 |
|---|---|
| Airport | Düsseldorf Airport (EDDL) |
| Time | Latitude | Longitude | Altitude | Speed | Heading |
|---|---|---|---|---|---|
| 2026-05-01 12:46 | 49.75178 | 6.12559 | 36308 ft | 453 kts | 1° |
| 2026-05-01 12:46 | 49.78317 | 6.12680 | 36303 ft | 453 kts | 1° |
| 2026-05-01 12:47 | 49.81472 | 6.12798 | 35948 ft | 456 kts | 1° |
| 2026-05-01 12:47 | 49.84641 | 6.12916 | 35315 ft | 456 kts | 1° |
| 2026-05-01 12:47 | 49.87809 | 6.13028 | 34702 ft | 457 kts | 1° |
| 2026-05-01 12:47 | 49.90981 | 6.13086 | 34049 ft | 458 kts | 0° |
| 2026-05-01 12:48 | 49.94163 | 6.13104 | 33231 ft | 461 kts | 0° |
| 2026-05-01 12:48 | 49.97375 | 6.13098 | 32482 ft | 461 kts | 0° |
| 2026-05-01 12:48 | 50.00572 | 6.13084 | 31865 ft | 459 kts | 0° |
| 2026-05-01 12:48 | 50.03758 | 6.13077 | 31205 ft | 458 kts | 0° |
| 2026-05-01 12:49 | 50.06934 | 6.13082 | 30510 ft | 458 kts | 1° |
| 2026-05-01 12:49 | 50.10116 | 6.13097 | 29690 ft | 458 kts | 1° |
| 2026-05-01 12:49 | 50.13307 | 6.13116 | 28803 ft | 459 kts | 1° |
| 2026-05-01 12:49 | 50.16498 | 6.13144 | 27888 ft | 461 kts | 1° |
| 2026-05-01 12:50 | 50.19713 | 6.13172 | 26961 ft | 464 kts | 1° |
| 2026-05-01 12:50 | 50.22936 | 6.13197 | 26094 ft | 465 kts | 1° |
| 2026-05-01 12:50 | 50.26144 | 6.13383 | 25462 ft | 459 kts | 8° |
| 2026-05-01 12:50 | 50.29243 | 6.14310 | 24819 ft | 452 kts | 17° |
| 2026-05-01 12:51 | 50.32173 | 6.15967 | 24176 ft | 446 kts | 26° |
| 2026-05-01 12:51 | 50.34873 | 6.18291 | 23480 ft | 441 kts | 34° |
| 2026-05-01 12:51 | 50.39958 | 6.23516 | 21963 ft | 435 kts | 35° |
| 2026-05-01 12:52 | 50.42469 | 6.26099 | 21247 ft | 432 kts | 35° |
| 2026-05-01 12:52 | 50.47446 | 6.31243 | 19855 ft | 426 kts | 36° |
| 2026-05-01 12:52 | 50.49912 | 6.33783 | 19177 ft | 424 kts | 35° |
| 2026-05-01 12:53 | 50.54923 | 6.38536 | 17800 ft | 419 kts | 32° |
| 2026-05-01 12:53 | 50.57444 | 6.40796 | 17150 ft | 416 kts | 32° |
| 2026-05-01 12:53 | 50.59940 | 6.43020 | 16518 ft | 412 kts | 32° |
| 2026-05-01 12:54 | 50.62413 | 6.45244 | 15995 ft | 406 kts | 32° |
| 2026-05-01 12:54 | 50.67212 | 6.49640 | 15034 ft | 394 kts | 33° |
| 2026-05-01 12:54 | 50.69554 | 6.51816 | 14551 ft | 390 kts | 33° |
| 2026-05-01 12:55 | 50.74167 | 6.56111 | 13560 ft | 382 kts | 33° |
| 2026-05-01 12:55 | 50.76439 | 6.58226 | 13046 ft | 378 kts | 33° |
| 2026-05-01 12:55 | 50.78692 | 6.60324 | 12535 ft | 375 kts | 33° |
| 2026-05-01 12:56 | 50.80985 | 6.62239 | 12016 ft | 374 kts | 26° |
| 2026-05-01 12:56 | 50.83425 | 6.63615 | 11688 ft | 368 kts | 17° |
| 2026-05-01 12:56 | 50.85893 | 6.64428 | 11449 ft | 360 kts | 9° |
| 2026-05-01 12:56 | 50.88347 | 6.64940 | 11197 ft | 351 kts | 9° |
| 2026-05-01 12:57 | 50.90738 | 6.65444 | 10963 ft | 343 kts | 9° |
| 2026-05-01 12:57 | 50.95361 | 6.66442 | 10477 ft | 329 kts | 9° |
| 2026-05-01 12:57 | 50.97607 | 6.66930 | 10235 ft | 323 kts | 9° |
| 2026-05-01 12:58 | 50.99807 | 6.67403 | 10000 ft | 316 kts | 9° |
| 2026-05-01 12:58 | 51.01957 | 6.67798 | 9817 ft | 309 kts | 4° |
| 2026-05-01 12:58 | 51.04073 | 6.67806 | 9516 ft | 306 kts | 358° |
| 2026-05-01 12:59 | 51.08298 | 6.67711 | 8803 ft | 300 kts | 14° |
| 2026-05-01 12:59 | 51.10162 | 6.69027 | 8459 ft | 292 kts | 41° |
| 2026-05-01 12:59 | 51.12682 | 6.73899 | 7722 ft | 285 kts | 58° |
| 2026-05-01 13:00 | 51.14962 | 6.79021 | 7051 ft | 282 kts | 58° |
| 2026-05-01 13:00 | 51.16093 | 6.81564 | 6660 ft | 282 kts | 58° |
| 2026-05-01 13:01 | 51.18341 | 6.86630 | 6000 ft | 280 kts | 58° |
| 2026-05-01 13:01 | 51.19451 | 6.89135 | 5808 ft | 272 kts | 58° |
| 2026-05-01 13:01 | 51.21575 | 6.93888 | 5545 ft | 256 kts | 58° |
| 2026-05-01 13:02 | 51.22590 | 6.96151 | 5400 ft | 249 kts | 58° |
| 2026-05-01 13:07 | 51.37365 | 6.95020 | 2713 ft | 182 kts | 228° |
| 2026-05-01 13:07 | 51.36600 | 6.93403 | 2496 ft | 183 kts | 226° |
| 2026-05-01 13:07 | 51.35830 | 6.91779 | 2224 ft | 184 kts | 228° |
| 2026-05-01 13:08 | 51.35095 | 6.90218 | 2014 ft | 167 kts | 226° |
| 2026-05-01 13:08 | 51.34422 | 6.88795 | 1795 ft | 156 kts | 227° |
| 2026-05-01 13:08 | 51.33776 | 6.87435 | 1592 ft | 152 kts | 227° |
| 2026-05-01 13:08 | 51.33150 | 6.86117 | 1381 ft | 148 kts | 225° |
| 2026-05-01 13:09 | 51.32530 | 6.84809 | 1161 ft | 148 kts | 226° |
| 2026-05-01 13:09 | 51.31915 | 6.83515 | 988 ft | 145 kts | 226° |
| 2026-05-01 13:09 | 51.31306 | 6.82235 | 826 ft | 145 kts | 226° |
| 2026-05-01 13:09 | 51.30705 | 6.80947 | 605 ft | 144 kts | 228° |
| 2026-05-01 13:10 | 51.30099 | 6.79683 | 369 ft | 144 kts | 227° |
| 2026-05-01 13:10 | 51.29491 | 6.78403 | 155 ft | 145 kts | 226° |
| 2026-05-01 13:10 | 51.28918 | 6.77209 | 120 ft | 123 kts | 228° |
| 2026-05-01 13:10 | 51.28397 | 6.76117 | 129 ft | 145 kts | 228° |
| 2026-05-01 13:11 | 51.27774 | 6.74741 | 752 ft | 155 kts | 226° |
| 2026-05-01 13:11 | 51.27145 | 6.73271 | 1663 ft | 165 kts | 232° |
| 2026-05-01 13:11 | 51.26495 | 6.71739 | 2499 ft | 166 kts | 230° |
| 2026-05-01 13:11 | 51.25847 | 6.70226 | 3127 ft | 167 kts | 229° |
| 2026-05-01 13:12 | 51.25371 | 6.68494 | 3664 ft | 182 kts | 255° |
| 2026-05-01 13:12 | 51.25534 | 6.66342 | 3887 ft | 209 kts | 280° |
| 2026-05-01 13:12 | 51.25676 | 6.63958 | 3998 ft | 227 kts | 262° |
| 2026-05-01 13:12 | 51.25852 | 6.61381 | 3974 ft | 243 kts | 288° |
| 2026-05-01 13:13 | 51.26799 | 6.59127 | 3999 ft | 249 kts | 309° |
| 2026-05-01 13:13 | 51.27967 | 6.57082 | 4010 ft | 250 kts | 306° |
| 2026-05-01 13:13 | 51.29108 | 6.55009 | 4007 ft | 251 kts | 321° |
| 2026-05-01 13:13 | 51.30692 | 6.53886 | 4007 ft | 251 kts | 353° |
| 2026-05-01 13:14 | 51.32400 | 6.54183 | 4008 ft | 248 kts | 26° |
| 2026-05-01 13:14 | 51.33754 | 6.55764 | 4007 ft | 241 kts | 54° |
| 2026-05-01 13:14 | 51.34797 | 6.57871 | 3995 ft | 239 kts | 62° |
| 2026-05-01 13:14 | 51.35620 | 6.60167 | 4007 ft | 239 kts | 65° |
| 2026-05-01 13:15 | 51.36449 | 6.62475 | 4002 ft | 239 kts | 64° |
| 2026-05-01 13:15 | 51.37280 | 6.64767 | 4007 ft | 239 kts | 65° |
| 2026-05-01 13:15 | 51.38111 | 6.67057 | 3993 ft | 238 kts | 64° |
| 2026-05-01 13:15 | 51.38940 | 6.69345 | 4011 ft | 239 kts | 66° |
| 2026-05-01 13:16 | 51.39766 | 6.71635 | 4004 ft | 237 kts | 65° |
| 2026-05-01 13:16 | 51.40586 | 6.73923 | 3909 ft | 237 kts | 65° |
| 2026-05-01 13:16 | 51.41399 | 6.76193 | 3792 ft | 235 kts | 64° |
| 2026-05-01 13:17 | 51.43799 | 6.82906 | 3401 ft | 232 kts | 65° |
| 2026-05-01 13:17 | 51.44590 | 6.85134 | 3270 ft | 229 kts | 64° |
| 2026-05-01 13:18 | 51.46161 | 6.89561 | 3014 ft | 227 kts | 64° |
| 2026-05-01 13:18 | 51.46705 | 6.91905 | 3023 ft | 224 kts | 89° |
| 2026-05-01 13:18 | 51.46402 | 6.94252 | 3015 ft | 216 kts | 121° |
| 2026-05-01 13:18 | 51.45360 | 6.95933 | 3019 ft | 214 kts | 144° |
| 2026-05-01 13:19 | 51.44169 | 6.97349 | 2997 ft | 211 kts | 143° |
| 2026-05-01 13:19 | 51.42973 | 6.98526 | 2996 ft | 194 kts | 158° |
| 2026-05-01 13:19 | 51.40451 | 6.98878 | 3030 ft | 184 kts | 189° |
| 2026-05-01 13:20 | 51.39264 | 6.98144 | 3023 ft | 183 kts | 206° |
| 2026-05-01 13:20 | 51.38257 | 6.96864 | 2965 ft | 189 kts | 221° |
| 2026-05-01 13:20 | 51.37455 | 6.95227 | 2752 ft | 185 kts | 229° |
| 2026-05-01 13:21 | 51.35912 | 6.91951 | 2270 ft | 183 kts | 228° |
| 2026-05-01 13:21 | 51.35151 | 6.90340 | 2023 ft | 177 kts | 227° |
| 2026-05-01 13:21 | 51.34451 | 6.88855 | 1813 ft | 161 kts | 227° |
| 2026-05-01 13:21 | 51.33794 | 6.87471 | 1607 ft | 152 kts | 227° |
| 2026-05-01 13:22 | 51.33177 | 6.86169 | 1400 ft | 143 kts | 226° |
| 2026-05-01 13:22 | 51.32575 | 6.84901 | 1172 ft | 142 kts | 226° |
| 2026-05-01 13:22 | 51.31976 | 6.83647 | 990 ft | 141 kts | 227° |
| 2026-05-01 13:22 | 51.31388 | 6.82415 | 808 ft | 139 kts | 228° |
| 2026-05-01 13:23 | 51.30816 | 6.81179 | 621 ft | 139 kts | 227° |
| 2026-05-01 13:23 | 51.30231 | 6.79955 | 383 ft | 139 kts | 228° |
| 2026-05-01 13:23 | 51.29645 | 6.78722 | 201 ft | 140 kts | 226° |
| 2026-05-01 13:23 | 51.29069 | 6.77544 | 117 ft | 122 kts | 230° |
| 2026-05-01 13:24 | 51.28693 | 6.76738 | 114 ft | 64 kts | 232° |
| 2026-05-01 13:24 | 51.28495 | 6.76318 | 114 ft | 40 kts | 233° |
| 2026-05-01 13:24 | 51.28376 | 6.76095 | 115 ft | 17 kts | 223° |
| 2026-05-01 13:25 | 51.28255 | 6.76045 | 118 ft | 0 kts | 168° |
| 2026-05-01 13:25 | 51.28240 | 6.76050 | 118 ft | 6 kts | 167° |
| 2026-05-01 13:25 | 51.28195 | 6.76101 | 115 ft | 13 kts | 117° |
| 2026-05-01 13:25 | 51.28234 | 6.76241 | 115 ft | 15 kts | 53° |
| 2026-05-01 13:26 | 51.28295 | 6.76371 | 115 ft | 15 kts | 53° |
| 2026-05-01 13:26 | 51.28356 | 6.76498 | 114 ft | 14 kts | 52° |
| 2026-05-01 13:26 | 51.28417 | 6.76624 | 116 ft | 14 kts | 52° |
| 2026-05-01 13:26 | 51.28456 | 6.76736 | 118 ft | 10 kts | 94° |
| 2026-05-01 13:27 | 51.28411 | 6.76819 | 113 ft | 11 kts | 142° |
| 2026-05-01 13:27 | 51.28353 | 6.76917 | 117 ft | 13 kts | 102° |
| 2026-05-01 13:27 | 51.28445 | 6.77143 | 116 ft | 13 kts | 52° |
| 2026-05-01 13:28 | 51.28548 | 6.77370 | 117 ft | 7 kts | 53° |
| 2026-05-01 13:28 | 51.28580 | 6.77367 | 114 ft | 5 kts | 333° |
| 2026-05-01 13:29 | 51.28618 | 6.77325 | 116 ft | 0 kts | 322° |